sensor_id;sensor_type;location;lat;lon;timestamp;P1;durP1;ratioP1;P2;durP2;ratioP2
67869;SDS011;54673;52.262;6.830;2023-04-06T00:01:07;2.07;;;1.20;;
67869;SDS011;54673;52.262;6.830;2023-04-06T00:03:32;2.05;;;1.20;;
67869;SDS011;54673;52.262;6.830;2023-04-06T00:05:58;1.77;;;1.10;;
67869;SDS011;54673;52.262;6.830;2023-04-06T00:08:25;1.93;;;1.20;;
67869;SDS011;54673;52.262;6.830;2023-04-06T00:10:51;2.05;;;1.30;;
67869;SDS011;54673;52.262;6.830;2023-04-06T00:13:16;1.90;;;1.30;;
67869;SDS011;54673;52.262;6.830;2023-04-06T00:15:42;1.45;;;1.13;;
67869;SDS011;54673;52.262;6.830;2023-04-06T00:18:07;1.70;;;1.27;;
67869;SDS011;54673;52.262;6.830;2023-04-06T00:20:33;2.70;;;1.07;;
67869;SDS011;54673;52.262;6.830;2023-04-06T00:22:58;1.80;;;1.17;;
67869;SDS011;54673;52.262;6.830;2023-04-06T00:25:24;2.10;;;1.37;;
67869;SDS011;54673;52.262;6.830;2023-04-06T00:27:50;1.45;;;1.33;;
67869;SDS011;54673;52.262;6.830;2023-04-06T00:30:16;1.60;;;1.37;;
67869;SDS011;54673;52.262;6.830;2023-04-06T00:32:41;1.90;;;1.50;;
67869;SDS011;54673;52.262;6.830;2023-04-06T00:35:07;1.47;;;1.37;;
67869;SDS011;54673;52.262;6.830;2023-04-06T00:37:32;1.83;;;1.43;;
67869;SDS011;54673;52.262;6.830;2023-04-06T00:39:58;1.63;;;1.33;;
67869;SDS011;54673;52.262;6.830;2023-04-06T00:42:23;1.87;;;1.47;;
67869;SDS011;54673;52.262;6.830;2023-04-06T00:44:53;2.05;;;1.30;;
67869;SDS011;54673;52.262;6.830;2023-04-06T00:47:23;1.97;;;1.27;;
67869;SDS011;54673;52.262;6.830;2023-04-06T00:49:52;2.15;;;1.25;;
67869;SDS011;54673;52.262;6.830;2023-04-06T00:52:18;2.33;;;1.55;;
67869;SDS011;54673;52.262;6.830;2023-04-06T00:54:44;1.57;;;1.23;;
67869;SDS011;54673;52.262;6.830;2023-04-06T00:57:13;1.23;;;1.10;;
67869;SDS011;54673;52.262;6.830;2023-04-06T00:59:39;2.40;;;1.25;;
67869;SDS011;54673;52.262;6.830;2023-04-06T01:02:05;2.00;;;1.40;;
67869;SDS011;54673;52.262;6.830;2023-04-06T01:04:32;2.77;;;1.30;;
67869;SDS011;54673;52.262;6.830;2023-04-06T01:06:58;1.77;;;1.42;;
67869;SDS011;54673;52.262;6.830;2023-04-06T01:09:23;2.03;;;1.33;;
67869;SDS011;54673;52.262;6.830;2023-04-06T01:11:49;3.78;;;1.50;;
67869;SDS011;54673;52.262;6.830;2023-04-06T01:14:14;2.00;;;1.20;;
67869;SDS011;54673;52.262;6.830;2023-04-06T01:16:40;2.87;;;1.80;;
67869;SDS011;54673;52.262;6.830;2023-04-06T01:19:07;1.95;;;1.60;;
67869;SDS011;54673;52.262;6.830;2023-04-06T01:21:34;2.17;;;1.38;;
67869;SDS011;54673;52.262;6.830;2023-04-06T01:24:00;2.17;;;1.43;;
67869;SDS011;54673;52.262;6.830;2023-04-06T01:26:26;1.77;;;1.35;;
67869;SDS011;54673;52.262;6.830;2023-04-06T01:28:52;2.10;;;1.20;;
67869;SDS011;54673;52.262;6.830;2023-04-06T01:31:17;2.00;;;1.30;;
67869;SDS011;54673;52.262;6.830;2023-04-06T01:33:43;2.08;;;1.42;;
67869;SDS011;54673;52.262;6.830;2023-04-06T01:36:08;2.20;;;1.37;;
67869;SDS011;54673;52.262;6.830;2023-04-06T01:38:34;1.65;;;1.30;;
67869;SDS011;54673;52.262;6.830;2023-04-06T01:41:00;2.60;;;1.40;;
67869;SDS011;54673;52.262;6.830;2023-04-06T01:43:25;2.17;;;1.67;;
67869;SDS011;54673;52.262;6.830;2023-04-06T01:45:51;1.73;;;1.20;;
67869;SDS011;54673;52.262;6.830;2023-04-06T01:48:16;2.63;;;1.60;;
67869;SDS011;54673;52.262;6.830;2023-04-06T01:50:42;1.83;;;1.48;;
67869;SDS011;54673;52.262;6.830;2023-04-06T01:53:07;2.13;;;1.27;;
67869;SDS011;54673;52.262;6.830;2023-04-06T01:55:33;3.23;;;1.50;;
67869;SDS011;54673;52.262;6.830;2023-04-06T01:57:58;2.90;;;1.67;;
67869;SDS011;54673;52.262;6.830;2023-04-06T02:00:24;2.57;;;1.40;;
67869;SDS011;54673;52.262;6.830;2023-04-06T02:02:50;2.42;;;1.60;;
67869;SDS011;54673;52.262;6.830;2023-04-06T02:05:15;2.43;;;1.30;;
67869;SDS011;54673;52.262;6.830;2023-04-06T02:07:41;2.73;;;1.50;;
67869;SDS011;54673;52.262;6.830;2023-04-06T02:10:11;1.88;;;1.40;;
67869;SDS011;54673;52.262;6.830;2023-04-06T02:12:37;2.17;;;1.50;;
67869;SDS011;54673;52.262;6.830;2023-04-06T02:15:03;3.67;;;1.60;;
67869;SDS011;54673;52.262;6.830;2023-04-06T02:17:29;1.80;;;1.60;;
67869;SDS011;54673;52.262;6.830;2023-04-06T02:19:55;2.08;;;1.38;;
67869;SDS011;54673;52.262;6.830;2023-04-06T02:22:20;3.00;;;1.77;;
67869;SDS011;54673;52.262;6.830;2023-04-06T02:24:46;3.35;;;1.63;;
67869;SDS011;54673;52.262;6.830;2023-04-06T02:27:11;2.30;;;1.40;;
67869;SDS011;54673;52.262;6.830;2023-04-06T02:29:38;2.22;;;1.48;;
67869;SDS011;54673;52.262;6.830;2023-04-06T02:32:04;3.37;;;1.60;;
67869;SDS011;54673;52.262;6.830;2023-04-06T02:34:30;2.70;;;1.33;;
67869;SDS011;54673;52.262;6.830;2023-04-06T02:36:55;3.20;;;1.50;;
67869;SDS011;54673;52.262;6.830;2023-04-06T02:39:21;1.97;;;1.40;;
67869;SDS011;54673;52.262;6.830;2023-04-06T02:41:46;4.07;;;1.60;;
67869;SDS011;54673;52.262;6.830;2023-04-06T02:44:12;2.60;;;1.57;;
67869;SDS011;54673;52.262;6.830;2023-04-06T02:46:37;2.07;;;1.33;;
67869;SDS011;54673;52.262;6.830;2023-04-06T02:49:03;2.90;;;1.20;;
67869;SDS011;54673;52.262;6.830;2023-04-06T02:51:28;2.07;;;1.43;;
67869;SDS011;54673;52.262;6.830;2023-04-06T02:53:54;1.87;;;1.40;;
67869;SDS011;54673;52.262;6.830;2023-04-06T02:56:19;2.47;;;1.30;;
67869;SDS011;54673;52.262;6.830;2023-04-06T02:58:48;2.20;;;1.53;;
67869;SDS011;54673;52.262;6.830;2023-04-06T03:01:13;2.40;;;1.48;;
67869;SDS011;54673;52.262;6.830;2023-04-06T03:03:39;1.60;;;1.47;;
67869;SDS011;54673;52.262;6.830;2023-04-06T03:06:05;2.40;;;1.45;;
67869;SDS011;54673;52.262;6.830;2023-04-06T03:08:31;3.33;;;1.50;;
67869;SDS011;54673;52.262;6.830;2023-04-06T03:10:56;2.25;;;1.48;;
67869;SDS011;54673;52.262;6.830;2023-04-06T03:13:22;2.23;;;1.37;;
67869;SDS011;54673;52.262;6.830;2023-04-06T03:15:48;2.33;;;1.27;;
67869;SDS011;54673;52.262;6.830;2023-04-06T03:18:13;1.60;;;1.43;;
67869;SDS011;54673;52.262;6.830;2023-04-06T03:20:39;1.87;;;1.40;;
67869;SDS011;54673;52.262;6.830;2023-04-06T03:23:05;1.73;;;1.30;;
67869;SDS011;54673;52.262;6.830;2023-04-06T03:25:30;3.42;;;1.50;;
67869;SDS011;54673;52.262;6.830;2023-04-06T03:27:56;2.00;;;1.20;;
67869;SDS011;54673;52.262;6.830;2023-04-06T03:30:22;2.70;;;1.40;;
67869;SDS011;54673;52.262;6.830;2023-04-06T03:32:47;1.27;;;1.10;;
67869;SDS011;54673;52.262;6.830;2023-04-06T03:35:13;2.33;;;1.13;;
67869;SDS011;54673;52.262;6.830;2023-04-06T03:37:38;2.20;;;1.33;;
67869;SDS011;54673;52.262;6.830;2023-04-06T03:40:04;2.00;;;1.38;;
67869;SDS011;54673;52.262;6.830;2023-04-06T03:42:31;1.60;;;1.30;;
67869;SDS011;54673;52.262;6.830;2023-04-06T03:44:57;2.30;;;1.20;;
67869;SDS011;54673;52.262;6.830;2023-04-06T03:47:23;1.65;;;1.20;;
67869;SDS011;54673;52.262;6.830;2023-04-06T03:49:49;2.30;;;1.23;;
67869;SDS011;54673;52.262;6.830;2023-04-06T03:52:15;2.38;;;1.52;;
67869;SDS011;54673;52.262;6.830;2023-04-06T03:54:40;2.00;;;1.40;;
67869;SDS011;54673;52.262;6.830;2023-04-06T03:57:06;2.70;;;1.20;;
67869;SDS011;54673;52.262;6.830;2023-04-06T03:59:31;1.65;;;1.50;;
67869;SDS011;54673;52.262;6.830;2023-04-06T04:01:57;3.53;;;1.50;;
67869;SDS011;54673;52.262;6.830;2023-04-06T04:04:22;2.63;;;1.20;;
67869;SDS011;54673;52.262;6.830;2023-04-06T04:06:48;2.47;;;1.38;;
67869;SDS011;54673;52.262;6.830;2023-04-06T04:09:13;2.50;;;1.10;;
67869;SDS011;54673;52.262;6.830;2023-04-06T04:11:39;2.53;;;1.30;;
67869;SDS011;54673;52.262;6.830;2023-04-06T04:14:04;2.88;;;1.27;;
67869;SDS011;54673;52.262;6.830;2023-04-06T04:16:30;2.10;;;1.40;;
67869;SDS011;54673;52.262;6.830;2023-04-06T04:18:55;2.42;;;1.35;;
67869;SDS011;54673;52.262;6.830;2023-04-06T04:21:23;1.80;;;1.30;;
67869;SDS011;54673;52.262;6.830;2023-04-06T04:23:48;2.63;;;1.88;;
67869;SDS011;54673;52.262;6.830;2023-04-06T04:26:14;1.80;;;1.23;;
67869;SDS011;54673;52.262;6.830;2023-04-06T04:28:40;1.75;;;1.40;;
67869;SDS011;54673;52.262;6.830;2023-04-06T04:31:05;2.50;;;1.33;;
67869;SDS011;54673;52.262;6.830;2023-04-06T04:33:31;2.37;;;1.40;;
67869;SDS011;54673;52.262;6.830;2023-04-06T04:35:56;2.47;;;1.50;;
67869;SDS011;54673;52.262;6.830;2023-04-06T04:38:22;2.03;;;1.20;;
67869;SDS011;54673;52.262;6.830;2023-04-06T04:40:48;1.90;;;1.30;;
67869;SDS011;54673;52.262;6.830;2023-04-06T04:43:13;2.43;;;1.40;;
67869;SDS011;54673;52.262;6.830;2023-04-06T04:45:39;1.90;;;1.27;;
67869;SDS011;54673;52.262;6.830;2023-04-06T04:48:05;2.15;;;1.45;;
67869;SDS011;54673;52.262;6.830;2023-04-06T04:50:31;2.57;;;1.60;;
67869;SDS011;54673;52.262;6.830;2023-04-06T04:52:57;1.85;;;1.30;;
67869;SDS011;54673;52.262;6.830;2023-04-06T04:55:22;1.20;;;1.00;;
67869;SDS011;54673;52.262;6.830;2023-04-06T04:57:48;2.17;;;1.38;;
67869;SDS011;54673;52.262;6.830;2023-04-06T05:00:14;1.97;;;1.33;;
67869;SDS011;54673;52.262;6.830;2023-04-06T05:02:39;1.65;;;1.30;;
67869;SDS011;54673;52.262;6.830;2023-04-06T05:05:05;2.37;;;1.40;;
67869;SDS011;54673;52.262;6.830;2023-04-06T05:07:31;2.60;;;1.55;;
67869;SDS011;54673;52.262;6.830;2023-04-06T05:09:57;1.60;;;1.30;;
67869;SDS011;54673;52.262;6.830;2023-04-06T05:12:23;1.88;;;1.13;;
67869;SDS011;54673;52.262;6.830;2023-04-06T05:14:48;2.70;;;1.40;;
67869;SDS011;54673;52.262;6.830;2023-04-06T05:17:14;2.13;;;1.30;;
67869;SDS011;54673;52.262;6.830;2023-04-06T05:19:39;2.42;;;1.38;;
67869;SDS011;54673;52.262;6.830;2023-04-06T05:22:05;2.20;;;1.40;;
67869;SDS011;54673;52.262;6.830;2023-04-06T05:24:30;1.98;;;1.35;;
67869;SDS011;54673;52.262;6.830;2023-04-06T05:26:56;2.13;;;1.10;;
67869;SDS011;54673;52.262;6.830;2023-04-06T05:29:22;2.73;;;1.30;;
67869;SDS011;54673;52.262;6.830;2023-04-06T05:31:47;2.08;;;1.55;;
67869;SDS011;54673;52.262;6.830;2023-04-06T05:34:13;2.30;;;1.40;;
67869;SDS011;54673;52.262;6.830;2023-04-06T05:36:39;1.73;;;1.30;;
67869;SDS011;54673;52.262;6.830;2023-04-06T05:39:05;2.07;;;1.47;;
67869;SDS011;54673;52.262;6.830;2023-04-06T05:41:31;2.53;;;1.70;;
67869;SDS011;54673;52.262;6.830;2023-04-06T05:43:57;2.30;;;1.40;;
67869;SDS011;54673;52.262;6.830;2023-04-06T05:46:22;1.92;;;1.40;;
67869;SDS011;54673;52.262;6.830;2023-04-06T05:48:48;2.50;;;1.47;;
67869;SDS011;54673;52.262;6.830;2023-04-06T05:51:14;1.90;;;1.48;;
67869;SDS011;54673;52.262;6.830;2023-04-06T05:53:39;2.43;;;1.30;;
67869;SDS011;54673;52.262;6.830;2023-04-06T05:56:05;2.70;;;1.40;;
67869;SDS011;54673;52.262;6.830;2023-04-06T05:58:31;5.75;;;1.70;;
67869;SDS011;54673;52.262;6.830;2023-04-06T06:00:57;1.70;;;1.30;;
67869;SDS011;54673;52.262;6.830;2023-04-06T06:03:23;1.90;;;1.70;;
67869;SDS011;54673;52.262;6.830;2023-04-06T06:05:49;2.95;;;1.50;;
67869;SDS011;54673;52.262;6.830;2023-04-06T06:08:15;2.93;;;1.90;;
67869;SDS011;54673;52.262;6.830;2023-04-06T06:10:40;2.33;;;1.70;;
67869;SDS011;54673;52.262;6.830;2023-04-06T06:13:06;2.30;;;1.67;;
67869;SDS011;54673;52.262;6.830;2023-04-06T06:15:31;2.47;;;1.70;;
67869;SDS011;54673;52.262;6.830;2023-04-06T06:17:57;1.77;;;1.33;;
67869;SDS011;54673;52.262;6.830;2023-04-06T06:20:22;2.30;;;1.67;;
67869;SDS011;54673;52.262;6.830;2023-04-06T06:22:48;1.67;;;1.57;;
67869;SDS011;54673;52.262;6.830;2023-04-06T06:25:14;1.80;;;1.50;;
67869;SDS011;54673;52.262;6.830;2023-04-06T06:27:40;2.53;;;1.80;;
67869;SDS011;54673;52.262;6.830;2023-04-06T06:30:06;2.45;;;1.48;;
67869;SDS011;54673;52.262;6.830;2023-04-06T06:32:32;2.10;;;1.38;;
67869;SDS011;54673;52.262;6.830;2023-04-06T06:34:58;2.17;;;1.70;;
67869;SDS011;54673;52.262;6.830;2023-04-06T06:37:23;2.00;;;1.50;;
67869;SDS011;54673;52.262;6.830;2023-04-06T06:39:49;2.33;;;1.58;;
67869;SDS011;54673;52.262;6.830;2023-04-06T06:42:15;2.13;;;1.93;;
67869;SDS011;54673;52.262;6.830;2023-04-06T06:44:40;2.65;;;1.73;;
67869;SDS011;54673;52.262;6.830;2023-04-06T06:47:06;2.00;;;1.30;;
67869;SDS011;54673;52.262;6.830;2023-04-06T06:49:31;2.73;;;1.60;;
67869;SDS011;54673;52.262;6.830;2023-04-06T06:51:57;1.60;;;1.45;;
67869;SDS011;54673;52.262;6.830;2023-04-06T06:54:22;2.53;;;1.57;;
67869;SDS011;54673;52.262;6.830;2023-04-06T06:56:48;1.70;;;1.60;;
67869;SDS011;54673;52.262;6.830;2023-04-06T06:59:13;2.83;;;1.60;;
67869;SDS011;54673;52.262;6.830;2023-04-06T07:01:40;2.53;;;1.70;;
67869;SDS011;54673;52.262;6.830;2023-04-06T07:04:06;2.17;;;1.60;;
67869;SDS011;54673;52.262;6.830;2023-04-06T07:06:33;1.93;;;1.50;;
67869;SDS011;54673;52.262;6.830;2023-04-06T07:09:00;1.98;;;1.65;;
67869;SDS011;54673;52.262;6.830;2023-04-06T07:11:28;1.52;;;1.30;;
67869;SDS011;54673;52.262;6.830;2023-04-06T07:13:53;2.10;;;1.73;;
67869;SDS011;54673;52.262;6.830;2023-04-06T07:16:19;1.80;;;1.15;;
67869;SDS011;54673;52.262;6.830;2023-04-06T07:18:45;5.33;;;1.90;;
67869;SDS011;54673;52.262;6.830;2023-04-06T07:21:11;6.43;;;2.10;;
67869;SDS011;54673;52.262;6.830;2023-04-06T07:23:37;3.03;;;1.97;;
67869;SDS011;54673;52.262;6.830;2023-04-06T07:26:02;8.90;;;1.90;;
67869;SDS011;54673;52.262;6.830;2023-04-06T07:28:28;6.67;;;1.97;;
67869;SDS011;54673;52.262;6.830;2023-04-06T07:30:53;4.28;;;1.83;;
67869;SDS011;54673;52.262;6.830;2023-04-06T07:33:19;3.17;;;1.80;;
67869;SDS011;54673;52.262;6.830;2023-04-06T07:35:45;3.25;;;1.80;;
67869;SDS011;54673;52.262;6.830;2023-04-06T07:38:11;4.10;;;2.20;;
67869;SDS011;54673;52.262;6.830;2023-04-06T07:40:36;3.55;;;2.10;;
67869;SDS011;54673;52.262;6.830;2023-04-06T07:43:02;2.70;;;2.00;;
67869;SDS011;54673;52.262;6.830;2023-04-06T07:45:28;5.78;;;1.83;;
67869;SDS011;54673;52.262;6.830;2023-04-06T07:47:54;5.07;;;2.20;;
67869;SDS011;54673;52.262;6.830;2023-04-06T07:50:20;5.43;;;2.17;;
67869;SDS011;54673;52.262;6.830;2023-04-06T07:52:46;2.90;;;2.08;;
67869;SDS011;54673;52.262;6.830;2023-04-06T07:55:11;5.07;;;2.23;;
67869;SDS011;54673;52.262;6.830;2023-04-06T07:57:37;4.60;;;2.10;;
67869;SDS011;54673;52.262;6.830;2023-04-06T08:00:02;3.17;;;1.88;;
67869;SDS011;54673;52.262;6.830;2023-04-06T08:02:29;4.27;;;2.00;;
67869;SDS011;54673;52.262;6.830;2023-04-06T08:04:56;5.53;;;2.30;;
67869;SDS011;54673;52.262;6.830;2023-04-06T08:07:22;3.40;;;1.80;;
67869;SDS011;54673;52.262;6.830;2023-04-06T08:09:47;5.55;;;2.22;;
67869;SDS011;54673;52.262;6.830;2023-04-06T08:12:13;5.23;;;2.20;;
67869;SDS011;54673;52.262;6.830;2023-04-06T08:14:39;5.75;;;2.30;;
67869;SDS011;54673;52.262;6.830;2023-04-06T08:17:04;3.77;;;2.10;;
67869;SDS011;54673;52.262;6.830;2023-04-06T08:19:30;4.03;;;2.10;;
67869;SDS011;54673;52.262;6.830;2023-04-06T08:21:55;2.87;;;2.17;;
67869;SDS011;54673;52.262;6.830;2023-04-06T08:24:21;3.10;;;2.17;;
67869;SDS011;54673;52.262;6.830;2023-04-06T08:26:46;3.63;;;1.92;;
67869;SDS011;54673;52.262;6.830;2023-04-06T08:29:12;5.77;;;2.13;;
67869;SDS011;54673;52.262;6.830;2023-04-06T08:31:38;3.83;;;2.00;;
67869;SDS011;54673;52.262;6.830;2023-04-06T08:34:03;3.03;;;1.92;;
67869;SDS011;54673;52.262;6.830;2023-04-06T08:36:30;3.97;;;2.23;;
67869;SDS011;54673;52.262;6.830;2023-04-06T08:38:56;3.17;;;1.90;;
67869;SDS011;54673;52.262;6.830;2023-04-06T08:41:21;2.17;;;1.88;;
67869;SDS011;54673;52.262;6.830;2023-04-06T08:43:48;4.13;;;1.90;;
67869;SDS011;54673;52.262;6.830;2023-04-06T08:46:17;3.95;;;1.95;;
67869;SDS011;54673;52.262;6.830;2023-04-06T08:48:43;3.37;;;2.00;;
67869;SDS011;54673;52.262;6.830;2023-04-06T08:51:10;4.55;;;2.30;;
67869;SDS011;54673;52.262;6.830;2023-04-06T08:53:36;3.65;;;2.15;;
67869;SDS011;54673;52.262;6.830;2023-04-06T08:56:03;4.97;;;2.10;;
67869;SDS011;54673;52.262;6.830;2023-04-06T08:58:32;2.80;;;2.20;;
67869;SDS011;54673;52.262;6.830;2023-04-06T09:01:02;3.67;;;1.83;;
67869;SDS011;54673;52.262;6.830;2023-04-06T09:03:32;3.80;;;2.05;;
67869;SDS011;54673;52.262;6.830;2023-04-06T09:06:03;3.58;;;1.73;;
67869;SDS011;54673;52.262;6.830;2023-04-06T09:08:29;5.30;;;2.00;;
67869;SDS011;54673;52.262;6.830;2023-04-06T09:10:55;3.67;;;1.90;;
67869;SDS011;54673;52.262;6.830;2023-04-06T09:13:20;3.87;;;2.30;;
67869;SDS011;54673;52.262;6.830;2023-04-06T09:15:46;4.60;;;2.00;;
67869;SDS011;54673;52.262;6.830;2023-04-06T09:18:32;4.27;;;1.97;;
67869;SDS011;54673;52.262;6.830;2023-04-06T09:21:02;3.72;;;2.50;;
67869;SDS011;54673;52.262;6.830;2023-04-06T09:23:29;3.63;;;2.40;;
67869;SDS011;54673;52.262;6.830;2023-04-06T09:26:05;5.97;;;2.60;;
67869;SDS011;54673;52.262;6.830;2023-04-06T09:28:42;4.03;;;2.40;;
67869;SDS011;54673;52.262;6.830;2023-04-06T09:31:15;5.03;;;2.30;;
67869;SDS011;54673;52.262;6.830;2023-04-06T09:33:46;3.25;;;2.35;;
67869;SDS011;54673;52.262;6.830;2023-04-06T09:36:12;5.53;;;2.30;;
67869;SDS011;54673;52.262;6.830;2023-04-06T09:38:52;4.45;;;2.25;;
67869;SDS011;54673;52.262;6.830;2023-04-06T09:44:03;2.78;;;2.17;;
67869;SDS011;54673;52.262;6.830;2023-04-06T09:46:34;3.03;;;2.03;;
67869;SDS011;54673;52.262;6.830;2023-04-06T09:49:01;3.90;;;2.30;;
67869;SDS011;54673;52.262;6.830;2023-04-06T09:51:28;2.38;;;2.10;;
67869;SDS011;54673;52.262;6.830;2023-04-06T09:53:56;3.00;;;2.00;;
67869;SDS011;54673;52.262;6.830;2023-04-06T09:56:27;2.90;;;2.00;;
67869;SDS011;54673;52.262;6.830;2023-04-06T09:58:56;3.55;;;2.45;;
67869;SDS011;54673;52.262;6.830;2023-04-06T10:01:26;3.67;;;2.43;;
67869;SDS011;54673;52.262;6.830;2023-04-06T10:03:56;4.45;;;2.13;;
67869;SDS011;54673;52.262;6.830;2023-04-06T10:06:42;4.55;;;2.30;;
67869;SDS011;54673;52.262;6.830;2023-04-06T10:09:10;5.80;;;2.60;;
67869;SDS011;54673;52.262;6.830;2023-04-06T10:11:37;5.60;;;2.22;;
67869;SDS011;54673;52.262;6.830;2023-04-06T10:17:07;4.53;;;2.13;;
67869;SDS011;54673;52.262;6.830;2023-04-06T10:19:39;4.17;;;2.23;;
67869;SDS011;54673;52.262;6.830;2023-04-06T10:22:15;3.90;;;2.00;;
67869;SDS011;54673;52.262;6.830;2023-04-06T10:24:47;3.90;;;2.28;;
67869;SDS011;54673;52.262;6.830;2023-04-06T10:27:13;3.50;;;1.83;;
67869;SDS011;54673;52.262;6.830;2023-04-06T10:29:42;3.53;;;1.90;;
67869;SDS011;54673;52.262;6.830;2023-04-06T10:32:13;3.63;;;1.88;;
67869;SDS011;54673;52.262;6.830;2023-04-06T10:34:39;3.47;;;2.10;;
67869;SDS011;54673;52.262;6.830;2023-04-06T10:37:14;3.45;;;1.88;;
67869;SDS011;54673;52.262;6.830;2023-04-06T10:40:17;3.47;;;2.17;;
67869;SDS011;54673;52.262;6.830;2023-04-06T10:42:42;4.53;;;2.40;;
67869;SDS011;54673;52.262;6.830;2023-04-06T10:45:18;4.77;;;1.87;;
67869;SDS011;54673;52.262;6.830;2023-04-06T10:47:45;4.57;;;2.58;;
67869;SDS011;54673;52.262;6.830;2023-04-06T10:50:11;4.53;;;2.00;;
67869;SDS011;54673;52.262;6.830;2023-04-06T10:52:40;4.10;;;2.17;;
67869;SDS011;54673;52.262;6.830;2023-04-06T10:55:06;3.93;;;2.27;;
67869;SDS011;54673;52.262;6.830;2023-04-06T10:57:33;3.33;;;2.13;;
67869;SDS011;54673;52.262;6.830;2023-04-06T11:00:01;4.30;;;2.60;;
67869;SDS011;54673;52.262;6.830;2023-04-06T11:02:28;3.28;;;2.08;;
67869;SDS011;54673;52.262;6.830;2023-04-06T11:04:55;3.50;;;2.30;;
67869;SDS011;54673;52.262;6.830;2023-04-06T11:07:25;4.57;;;2.47;;
67869;SDS011;54673;52.262;6.830;2023-04-06T11:09:52;3.10;;;2.13;;
67869;SDS011;54673;52.262;6.830;2023-04-06T11:12:24;3.17;;;1.92;;
67869;SDS011;54673;52.262;6.830;2023-04-06T11:15:01;5.38;;;2.60;;
67869;SDS011;54673;52.262;6.830;2023-04-06T11:17:31;3.23;;;1.90;;
67869;SDS011;54673;52.262;6.830;2023-04-06T11:19:58;4.63;;;2.45;;
67869;SDS011;54673;52.262;6.830;2023-04-06T11:22:25;4.72;;;2.50;;
67869;SDS011;54673;52.262;6.830;2023-04-06T11:24:51;5.30;;;2.80;;
67869;SDS011;54673;52.262;6.830;2023-04-06T11:27:17;4.75;;;2.88;;
67869;SDS011;54673;52.262;6.830;2023-04-06T11:29:44;3.70;;;2.30;;
67869;SDS011;54673;52.262;6.830;2023-04-06T11:32:19;3.15;;;2.35;;
67869;SDS011;54673;52.262;6.830;2023-04-06T11:34:46;6.95;;;4.57;;
67869;SDS011;54673;52.262;6.830;2023-04-06T11:37:12;9.77;;;6.97;;
67869;SDS011;54673;52.262;6.830;2023-04-06T11:39:43;10.45;;;7.28;;
67869;SDS011;54673;52.262;6.830;2023-04-06T11:42:20;10.33;;;7.00;;
67869;SDS011;54673;52.262;6.830;2023-04-06T11:44:49;11.68;;;8.30;;
67869;SDS011;54673;52.262;6.830;2023-04-06T11:47:19;15.25;;;10.02;;
67869;SDS011;54673;52.262;6.830;2023-04-06T11:49:45;15.00;;;9.80;;
67869;SDS011;54673;52.262;6.830;2023-04-06T11:52:18;14.80;;;9.32;;
67869;SDS011;54673;52.262;6.830;2023-04-06T11:54:44;13.27;;;9.40;;
67869;SDS011;54673;52.262;6.830;2023-04-06T11:57:10;16.07;;;10.60;;
67869;SDS011;54673;52.262;6.830;2023-04-06T11:59:36;19.63;;;13.02;;
67869;SDS011;54673;52.262;6.830;2023-04-06T12:02:02;16.00;;;11.90;;
67869;SDS011;54673;52.262;6.830;2023-04-06T12:04:28;16.55;;;12.45;;
67869;SDS011;54673;52.262;6.830;2023-04-06T12:06:54;17.63;;;12.30;;
67869;SDS011;54673;52.262;6.830;2023-04-06T12:09:19;18.40;;;13.25;;
67869;SDS011;54673;52.262;6.830;2023-04-06T12:11:46;17.88;;;13.48;;
67869;SDS011;54673;52.262;6.830;2023-04-06T12:14:12;19.43;;;13.83;;
67869;SDS011;54673;52.262;6.830;2023-04-06T12:16:37;18.20;;;13.25;;
67869;SDS011;54673;52.262;6.830;2023-04-06T12:19:03;21.30;;;14.00;;
67869;SDS011;54673;52.262;6.830;2023-04-06T12:21:32;17.90;;;13.75;;
67869;SDS011;54673;52.262;6.830;2023-04-06T12:24:00;18.37;;;14.07;;
67869;SDS011;54673;52.262;6.830;2023-04-06T12:26:26;20.63;;;14.47;;
67869;SDS011;54673;52.262;6.830;2023-04-06T12:28:52;20.80;;;14.70;;
67869;SDS011;54673;52.262;6.830;2023-04-06T12:31:18;21.10;;;14.73;;
67869;SDS011;54673;52.262;6.830;2023-04-06T12:33:50;21.73;;;15.10;;
67869;SDS011;54673;52.262;6.830;2023-04-06T12:36:18;20.35;;;15.30;;
67869;SDS011;54673;52.262;6.830;2023-04-06T12:38:49;22.87;;;15.20;;
67869;SDS011;54673;52.262;6.830;2023-04-06T12:41:15;21.13;;;14.88;;
67869;SDS011;54673;52.262;6.830;2023-04-06T12:43:42;20.63;;;14.50;;
67869;SDS011;54673;52.262;6.830;2023-04-06T12:46:08;22.20;;;15.10;;
67869;SDS011;54673;52.262;6.830;2023-04-06T12:48:34;20.55;;;14.73;;
67869;SDS011;54673;52.262;6.830;2023-04-06T12:51:01;20.23;;;15.07;;
67869;SDS011;54673;52.262;6.830;2023-04-06T12:53:28;19.20;;;15.50;;
67869;SDS011;54673;52.262;6.830;2023-04-06T12:55:54;22.93;;;16.03;;
67869;SDS011;54673;52.262;6.830;2023-04-06T12:58:21;22.00;;;14.75;;
67869;SDS011;54673;52.262;6.830;2023-04-06T13:00:47;20.85;;;15.25;;
67869;SDS011;54673;52.262;6.830;2023-04-06T13:03:14;22.57;;;15.70;;
67869;SDS011;54673;52.262;6.830;2023-04-06T13:05:45;21.40;;;15.27;;
67869;SDS011;54673;52.262;6.830;2023-04-06T13:08:13;24.00;;;16.37;;
67869;SDS011;54673;52.262;6.830;2023-04-06T13:10:49;21.80;;;15.85;;
67869;SDS011;54673;52.262;6.830;2023-04-06T13:13:15;24.13;;;15.82;;
67869;SDS011;54673;52.262;6.830;2023-04-06T13:15:41;23.43;;;15.70;;
67869;SDS011;54673;52.262;6.830;2023-04-06T13:18:08;21.83;;;15.48;;
67869;SDS011;54673;52.262;6.830;2023-04-06T13:20:34;23.73;;;16.57;;
67869;SDS011;54673;52.262;6.830;2023-04-06T13:23:00;22.42;;;15.85;;
67869;SDS011;54673;52.262;6.830;2023-04-06T13:25:26;22.80;;;15.50;;
67869;SDS011;54673;52.262;6.830;2023-04-06T13:27:51;25.15;;;16.33;;
67869;SDS011;54673;52.262;6.830;2023-04-06T13:30:17;25.10;;;16.97;;
67869;SDS011;54673;52.262;6.830;2023-04-06T13:32:42;23.47;;;17.10;;
67869;SDS011;54673;52.262;6.830;2023-04-06T13:35:08;22.60;;;15.88;;
67869;SDS011;54673;52.262;6.830;2023-04-06T13:37:34;24.13;;;16.43;;
67869;SDS011;54673;52.262;6.830;2023-04-06T13:40:00;23.83;;;16.17;;
67869;SDS011;54673;52.262;6.830;2023-04-06T13:42:27;22.38;;;16.27;;
67869;SDS011;54673;52.262;6.830;2023-04-06T13:44:53;26.10;;;16.33;;
67869;SDS011;54673;52.262;6.830;2023-04-06T13:47:18;25.10;;;17.83;;
67869;SDS011;54673;52.262;6.830;2023-04-06T13:49:45;27.33;;;17.67;;
67869;SDS011;54673;52.262;6.830;2023-04-06T13:52:11;24.45;;;17.95;;
67869;SDS011;54673;52.262;6.830;2023-04-06T13:54:37;25.03;;;18.30;;
67869;SDS011;54673;52.262;6.830;2023-04-06T13:57:03;29.85;;;19.17;;
67869;SDS011;54673;52.262;6.830;2023-04-06T13:59:35;25.60;;;18.00;;
67869;SDS011;54673;52.262;6.830;2023-04-06T14:02:05;24.33;;;17.40;;
67869;SDS011;54673;52.262;6.830;2023-04-06T14:04:34;27.50;;;17.75;;
67869;SDS011;54673;52.262;6.830;2023-04-06T14:07:00;27.90;;;18.57;;
67869;SDS011;54673;52.262;6.830;2023-04-06T14:09:27;28.63;;;18.85;;
67869;SDS011;54673;52.262;6.830;2023-04-06T14:11:53;27.33;;;18.60;;
67869;SDS011;54673;52.262;6.830;2023-04-06T14:14:19;24.00;;;17.17;;
67869;SDS011;54673;52.262;6.830;2023-04-06T14:16:45;26.70;;;18.17;;
67869;SDS011;54673;52.262;6.830;2023-04-06T14:19:15;25.03;;;18.00;;
67869;SDS011;54673;52.262;6.830;2023-04-06T14:21:42;28.17;;;18.95;;
67869;SDS011;54673;52.262;6.830;2023-04-06T14:24:09;26.75;;;18.05;;
67869;SDS011;54673;52.262;6.830;2023-04-06T14:26:35;27.27;;;18.53;;
67869;SDS011;54673;52.262;6.830;2023-04-06T14:29:02;24.10;;;17.70;;
67869;SDS011;54673;52.262;6.830;2023-04-06T14:31:28;25.03;;;17.40;;
67869;SDS011;54673;52.262;6.830;2023-04-06T14:33:54;26.88;;;17.67;;
67869;SDS011;54673;52.262;6.830;2023-04-06T14:36:20;26.07;;;18.30;;
67869;SDS011;54673;52.262;6.830;2023-04-06T14:38:45;26.27;;;18.45;;
67869;SDS011;54673;52.262;6.830;2023-04-06T14:41:18;23.33;;;17.00;;
67869;SDS011;54673;52.262;6.830;2023-04-06T14:43:45;27.58;;;18.00;;
67869;SDS011;54673;52.262;6.830;2023-04-06T14:46:12;26.52;;;17.60;;